sensor_id;sensor_type;location;lat;lon;timestamp;temperature;humidity
36244;DHT22;22284;49.956;19.816;2022-11-11T00:01:12;6.29;81.80
36244;DHT22;22284;49.956;19.816;2022-11-11T00:04:14;6.28;81.75
36244;DHT22;22284;49.956;19.816;2022-11-11T00:07:15;6.28;81.66
36244;DHT22;22284;49.956;19.816;2022-11-11T00:10:16;6.23;81.60
36244;DHT22;22284;49.956;19.816;2022-11-11T00:13:17;6.23;81.60
36244;DHT22;22284;49.956;19.816;2022-11-11T00:16:19;6.22;81.60
36244;DHT22;22284;49.956;19.816;2022-11-11T00:19:20;6.22;81.57
36244;DHT22;22284;49.956;19.816;2022-11-11T00:22:39;6.25;81.50
36244;DHT22;22284;49.956;19.816;2022-11-11T00:25:59;6.21;81.36
36244;DHT22;22284;49.956;19.816;2022-11-11T00:29:01;6.21;81.34
36244;DHT22;22284;49.956;19.816;2022-11-11T00:32:03;6.21;81.28
36244;DHT22;22284;49.956;19.816;2022-11-11T00:35:22;6.19;81.37
36244;DHT22;22284;49.956;19.816;2022-11-11T00:38:42;6.22;81.42
36244;DHT22;22284;49.956;19.816;2022-11-11T00:41:46;6.23;81.46
36244;DHT22;22284;49.956;19.816;2022-11-11T00:44:47;6.26;81.52
36244;DHT22;22284;49.956;19.816;2022-11-11T00:47:48;6.26;81.64
36244;DHT22;22284;49.956;19.816;2022-11-11T00:51:07;6.35;81.70
36244;DHT22;22284;49.956;19.816;2022-11-11T00:54:08;6.35;81.77
36244;DHT22;22284;49.956;19.816;2022-11-11T00:57:09;6.40;81.85
36244;DHT22;22284;49.956;19.816;2022-11-11T01:00:12;6.43;81.86
36244;DHT22;22284;49.956;19.816;2022-11-11T01:03:13;6.46;81.89
36244;DHT22;22284;49.956;19.816;2022-11-11T01:06:14;6.43;81.82
36244;DHT22;22284;49.956;19.816;2022-11-11T01:09:16;6.46;81.76
36244;DHT22;22284;49.956;19.816;2022-11-11T01:12:16;6.46;81.71
36244;DHT22;22284;49.956;19.816;2022-11-11T01:15:17;6.44;81.56
36244;DHT22;22284;49.956;19.816;2022-11-11T01:18:23;6.44;81.46
36244;DHT22;22284;49.956;19.816;2022-11-11T01:21:24;6.43;81.29
36244;DHT22;22284;49.956;19.816;2022-11-11T01:24:26;6.37;81.17
36244;DHT22;22284;49.956;19.816;2022-11-11T01:27:27;6.37;81.06
36244;DHT22;22284;49.956;19.816;2022-11-11T01:30:30;6.37;80.99
36244;DHT22;22284;49.956;19.816;2022-11-11T01:33:31;6.32;80.91
36244;DHT22;22284;49.956;19.816;2022-11-11T01:36:32;6.30;80.86
36244;DHT22;22284;49.956;19.816;2022-11-11T01:39:33;6.32;80.88
36244;DHT22;22284;49.956;19.816;2022-11-11T01:42:48;6.35;80.96
36244;DHT22;22284;49.956;19.816;2022-11-11T01:45:57;6.35;81.05
36244;DHT22;22284;49.956;19.816;2022-11-11T01:49:18;6.35;81.16
36244;DHT22;22284;49.956;19.816;2022-11-11T01:52:33;6.35;81.30
36244;DHT22;22284;49.956;19.816;2022-11-11T01:55:34;6.37;81.37
36244;DHT22;22284;49.956;19.816;2022-11-11T01:58:37;6.37;81.47
36244;DHT22;22284;49.956;19.816;2022-11-11T02:01:39;6.35;81.48
36244;DHT22;22284;49.956;19.816;2022-11-11T02:04:42;6.36;81.55
36244;DHT22;22284;49.956;19.816;2022-11-11T02:08:07;6.36;81.62
36244;DHT22;22284;49.956;19.816;2022-11-11T02:11:14;6.43;81.68
36244;DHT22;22284;49.956;19.816;2022-11-11T02:14:18;6.44;81.69
36244;DHT22;22284;49.956;19.816;2022-11-11T02:17:38;6.44;81.77
36244;DHT22;22284;49.956;19.816;2022-11-11T02:20:43;6.41;81.87
36244;DHT22;22284;49.956;19.816;2022-11-11T02:24:08;6.43;81.87
36244;DHT22;22284;49.956;19.816;2022-11-11T02:27:13;6.41;81.89
36244;DHT22;22284;49.956;19.816;2022-11-11T02:30:17;6.44;81.92
36244;DHT22;22284;49.956;19.816;2022-11-11T02:33:19;6.49;81.96
36244;DHT22;22284;49.956;19.816;2022-11-11T02:36:20;6.53;82.06
36244;DHT22;22284;49.956;19.816;2022-11-11T02:39:21;6.54;82.10
36244;DHT22;22284;49.956;19.816;2022-11-11T02:42:24;6.58;82.15
36244;DHT22;22284;49.956;19.816;2022-11-11T02:45:25;6.64;82.22
36244;DHT22;22284;49.956;19.816;2022-11-11T02:48:26;6.70;82.26
36244;DHT22;22284;49.956;19.816;2022-11-11T02:51:28;6.74;82.31
36244;DHT22;22284;49.956;19.816;2022-11-11T02:54:28;6.77;82.36
36244;DHT22;22284;49.956;19.816;2022-11-11T02:57:30;6.81;82.35
36244;DHT22;22284;49.956;19.816;2022-11-11T03:00:31;6.88;82.43
36244;DHT22;22284;49.956;19.816;2022-11-11T03:03:32;6.87;82.44
36244;DHT22;22284;49.956;19.816;2022-11-11T03:06:33;6.92;82.52
36244;DHT22;22284;49.956;19.816;2022-11-11T03:09:34;6.96;82.62
36244;DHT22;22284;49.956;19.816;2022-11-11T03:12:37;7.01;82.70
36244;DHT22;22284;49.956;19.816;2022-11-11T03:15:37;7.03;82.71
36244;DHT22;22284;49.956;19.816;2022-11-11T03:18:38;7.06;82.66
36244;DHT22;22284;49.956;19.816;2022-11-11T03:21:39;7.03;82.72
36244;DHT22;22284;49.956;19.816;2022-11-11T03:24:40;7.03;82.72
36244;DHT22;22284;49.956;19.816;2022-11-11T03:28:00;7.05;82.69
36244;DHT22;22284;49.956;19.816;2022-11-11T03:31:00;7.08;82.73
36244;DHT22;22284;49.956;19.816;2022-11-11T03:34:01;7.09;82.70
36244;DHT22;22284;49.956;19.816;2022-11-11T03:37:17;7.12;82.73
36244;DHT22;22284;49.956;19.816;2022-11-11T03:40:37;7.11;82.68
36244;DHT22;22284;49.956;19.816;2022-11-11T03:43:38;7.13;82.71
36244;DHT22;22284;49.956;19.816;2022-11-11T03:46:39;7.13;82.69
36244;DHT22;22284;49.956;19.816;2022-11-11T03:49:39;7.12;82.65
36244;DHT22;22284;49.956;19.816;2022-11-11T03:52:41;7.12;82.65
36244;DHT22;22284;49.956;19.816;2022-11-11T03:55:43;7.13;82.65
36244;DHT22;22284;49.956;19.816;2022-11-11T03:58:44;7.16;82.68
36244;DHT22;22284;49.956;19.816;2022-11-11T04:01:45;7.13;82.66
36244;DHT22;22284;49.956;19.816;2022-11-11T04:05:05;7.18;82.68
36244;DHT22;22284;49.956;19.816;2022-11-11T04:08:25;7.20;82.62
36244;DHT22;22284;49.956;19.816;2022-11-11T04:11:45;7.18;82.73
36244;DHT22;22284;49.956;19.816;2022-11-11T04:14:48;7.22;82.67
36244;DHT22;22284;49.956;19.816;2022-11-11T04:18:07;7.18;82.77
36244;DHT22;22284;49.956;19.816;2022-11-11T04:21:08;7.16;82.85
36244;DHT22;22284;49.956;19.816;2022-11-11T04:24:28;7.19;82.87
36244;DHT22;22284;49.956;19.816;2022-11-11T04:27:47;7.24;82.91
36244;DHT22;22284;49.956;19.816;2022-11-11T04:30:50;7.26;82.94
36244;DHT22;22284;49.956;19.816;2022-11-11T04:33:51;7.29;82.90
36244;DHT22;22284;49.956;19.816;2022-11-11T04:36:52;7.30;82.88
36244;DHT22;22284;49.956;19.816;2022-11-11T04:39:53;7.29;82.85
36244;DHT22;22284;49.956;19.816;2022-11-11T04:43:13;7.30;82.77
36244;DHT22;22284;49.956;19.816;2022-11-11T04:46:14;7.26;82.74
36244;DHT22;22284;49.956;19.816;2022-11-11T04:49:15;7.26;82.74
36244;DHT22;22284;49.956;19.816;2022-11-11T04:52:16;7.24;82.59
36244;DHT22;22284;49.956;19.816;2022-11-11T04:55:27;7.22;82.48
36244;DHT22;22284;49.956;19.816;2022-11-11T04:58:46;7.20;82.42
36244;DHT22;22284;49.956;19.816;2022-11-11T05:01:49;7.18;82.16
36244;DHT22;22284;49.956;19.816;2022-11-11T05:05:08;7.12;82.04
36244;DHT22;22284;49.956;19.816;2022-11-11T05:08:09;7.12;82.00
36244;DHT22;22284;49.956;19.816;2022-11-11T05:11:32;7.08;81.91
36244;DHT22;22284;49.956;19.816;2022-11-11T05:14:33;7.06;81.87
36244;DHT22;22284;49.956;19.816;2022-11-11T05:17:52;7.05;81.77
36244;DHT22;22284;49.956;19.816;2022-11-11T05:21:19;7.02;81.73
36244;DHT22;22284;49.956;19.816;2022-11-11T05:24:20;7.03;81.71
36244;DHT22;22284;49.956;19.816;2022-11-11T05:27:40;7.03;81.81
36244;DHT22;22284;49.956;19.816;2022-11-11T05:30:41;7.01;81.84
36244;DHT22;22284;49.956;19.816;2022-11-11T05:33:42;6.99;81.79
36244;DHT22;22284;49.956;19.816;2022-11-11T05:36:43;6.98;81.84
36244;DHT22;22284;49.956;19.816;2022-11-11T05:39:44;6.96;81.78
36244;DHT22;22284;49.956;19.816;2022-11-11T05:42:45;6.95;81.83
36244;DHT22;22284;49.956;19.816;2022-11-11T05:45:46;6.94;81.91
36244;DHT22;22284;49.956;19.816;2022-11-11T05:48:47;6.94;81.99
36244;DHT22;22284;49.956;19.816;2022-11-11T05:52:09;6.94;82.07
36244;DHT22;22284;49.956;19.816;2022-11-11T05:55:10;6.94;82.16
36244;DHT22;22284;49.956;19.816;2022-11-11T05:58:11;6.94;82.10
36244;DHT22;22284;49.956;19.816;2022-11-11T06:01:12;6.96;82.10
36244;DHT22;22284;49.956;19.816;2022-11-11T06:04:13;6.94;82.10
36244;DHT22;22284;49.956;19.816;2022-11-11T06:07:14;6.92;82.09
36244;DHT22;22284;49.956;19.816;2022-11-11T06:10:15;6.92;82.06
36244;DHT22;22284;49.956;19.816;2022-11-11T06:13:32;6.96;82.06
36244;DHT22;22284;49.956;19.816;2022-11-11T06:16:33;6.98;82.11
36244;DHT22;22284;49.956;19.816;2022-11-11T06:19:34;7.03;82.15
36244;DHT22;22284;49.956;19.816;2022-11-11T06:22:35;7.08;82.17
36244;DHT22;22284;49.956;19.816;2022-11-11T06:25:54;7.08;82.20
36244;DHT22;22284;49.956;19.816;2022-11-11T06:29:14;7.08;82.35
36244;DHT22;22284;49.956;19.816;2022-11-11T06:32:15;7.08;82.31
36244;DHT22;22284;49.956;19.816;2022-11-11T06:35:16;7.06;82.27
36244;DHT22;22284;49.956;19.816;2022-11-11T06:38:17;7.08;82.20
36244;DHT22;22284;49.956;19.816;2022-11-11T06:41:18;7.09;82.20
36244;DHT22;22284;49.956;19.816;2022-11-11T06:44:19;7.06;82.22
36244;DHT22;22284;49.956;19.816;2022-11-11T06:47:21;7.12;82.24
36244;DHT22;22284;49.956;19.816;2022-11-11T06:50:22;7.18;82.25
36244;DHT22;22284;49.956;19.816;2022-11-11T06:53:23;7.18;82.29
36244;DHT22;22284;49.956;19.816;2022-11-11T06:56:24;7.20;82.33
36244;DHT22;22284;49.956;19.816;2022-11-11T06:59:25;7.22;82.36
36244;DHT22;22284;49.956;19.816;2022-11-11T07:02:25;7.24;82.42
36244;DHT22;22284;49.956;19.816;2022-11-11T07:05:26;7.27;82.41
36244;DHT22;22284;49.956;19.816;2022-11-11T07:08:28;7.33;82.54
36244;DHT22;22284;49.956;19.816;2022-11-11T07:11:29;7.37;82.60
36244;DHT22;22284;49.956;19.816;2022-11-11T07:14:30;7.43;82.66
36244;DHT22;22284;49.956;19.816;2022-11-11T07:17:30;7.44;82.70
36244;DHT22;22284;49.956;19.816;2022-11-11T07:20:31;7.53;82.84
36244;DHT22;22284;49.956;19.816;2022-11-11T07:23:32;7.55;82.88
36244;DHT22;22284;49.956;19.816;2022-11-11T07:26:33;7.64;82.93
36244;DHT22;22284;49.956;19.816;2022-11-11T07:29:34;7.67;83.01
36244;DHT22;22284;49.956;19.816;2022-11-11T07:32:48;7.74;83.04
36244;DHT22;22284;49.956;19.816;2022-11-11T07:35:41;7.78;83.06
36244;DHT22;22284;49.956;19.816;2022-11-11T07:38:42;7.80;83.13
36244;DHT22;22284;49.956;19.816;2022-11-11T07:41:43;7.86;83.14
36244;DHT22;22284;49.956;19.816;2022-11-11T07:44:44;7.88;83.18
36244;DHT22;22284;49.956;19.816;2022-11-11T07:47:45;7.93;83.24
36244;DHT22;22284;49.956;19.816;2022-11-11T07:50:46;8.01;83.29
36244;DHT22;22284;49.956;19.816;2022-11-11T07:53:47;8.09;83.30
36244;DHT22;22284;49.956;19.816;2022-11-11T07:56:48;8.17;83.36
36244;DHT22;22284;49.956;19.816;2022-11-11T07:59:49;8.21;83.45
36244;DHT22;22284;49.956;19.816;2022-11-11T08:02:51;8.34;83.55
36244;DHT22;22284;49.956;19.816;2022-11-11T08:05:51;8.41;83.63
36244;DHT22;22284;49.956;19.816;2022-11-11T08:08:54;8.44;83.75
36244;DHT22;22284;49.956;19.816;2022-11-11T08:11:55;8.54;83.90
36244;DHT22;22284;49.956;19.816;2022-11-11T08:15:15;8.62;84.06
36244;DHT22;22284;49.956;19.816;2022-11-11T08:18:16;8.68;84.14
36244;DHT22;22284;49.956;19.816;2022-11-11T08:21:17;8.72;84.27
36244;DHT22;22284;49.956;19.816;2022-11-11T08:24:18;8.78;84.44
36244;DHT22;22284;49.956;19.816;2022-11-11T08:27:19;8.80;84.54
36244;DHT22;22284;49.956;19.816;2022-11-11T08:30:20;8.89;84.43
36244;DHT22;22284;49.956;19.816;2022-11-11T08:33:21;8.93;84.55
36244;DHT22;22284;49.956;19.816;2022-11-11T08:36:22;8.99;84.65
36244;DHT22;22284;49.956;19.816;2022-11-11T08:39:24;9.06;84.69
36244;DHT22;22284;49.956;19.816;2022-11-11T08:42:25;9.14;84.71
36244;DHT22;22284;49.956;19.816;2022-11-11T08:45:27;9.21;84.73
36244;DHT22;22284;49.956;19.816;2022-11-11T08:48:29;9.28;84.70
36244;DHT22;22284;49.956;19.816;2022-11-11T08:51:30;9.39;84.70
36244;DHT22;22284;49.956;19.816;2022-11-11T08:54:32;9.47;84.60
36244;DHT22;22284;49.956;19.816;2022-11-11T08:57:33;9.58;84.46
36244;DHT22;22284;49.956;19.816;2022-11-11T09:00:34;9.67;84.32
36244;DHT22;22284;49.956;19.816;2022-11-11T09:03:35;9.75;84.11
36244;DHT22;22284;49.956;19.816;2022-11-11T09:06:36;9.83;84.01
36244;DHT22;22284;49.956;19.816;2022-11-11T09:09:37;9.92;83.83
36244;DHT22;22284;49.956;19.816;2022-11-11T09:12:38;10.01;83.73
36244;DHT22;22284;49.956;19.816;2022-11-11T09:15:39;10.13;83.63
36244;DHT22;22284;49.956;19.816;2022-11-11T09:18:40;10.21;83.52
36244;DHT22;22284;49.956;19.816;2022-11-11T09:21:41;10.32;83.46
36244;DHT22;22284;49.956;19.816;2022-11-11T09:24:42;10.41;83.28
36244;DHT22;22284;49.956;19.816;2022-11-11T09:27:43;10.52;83.13
36244;DHT22;22284;49.956;19.816;2022-11-11T09:30:44;10.61;83.00
36244;DHT22;22284;49.956;19.816;2022-11-11T09:33:45;10.68;82.87
36244;DHT22;22284;49.956;19.816;2022-11-11T09:36:46;10.75;82.69
36244;DHT22;22284;49.956;19.816;2022-11-11T09:39:47;10.80;82.60
36244;DHT22;22284;49.956;19.816;2022-11-11T09:43:09;10.91;82.46
36244;DHT22;22284;49.956;19.816;2022-11-11T09:46:26;11.01;82.23
36244;DHT22;22284;49.956;19.816;2022-11-11T09:53:21;11.17;81.51
36244;DHT22;22284;49.956;19.816;2022-11-11T09:56:26;11.22;81.29
36244;DHT22;22284;49.956;19.816;2022-11-11T09:59:35;11.24;81.02
36244;DHT22;22284;49.956;19.816;2022-11-11T10:02:52;11.31;80.85
36244;DHT22;22284;49.956;19.816;2022-11-11T10:06:06;11.31;80.63
36244;DHT22;22284;49.956;19.816;2022-11-11T10:09:21;11.34;80.36
36244;DHT22;22284;49.956;19.816;2022-11-11T10:12:25;11.35;80.04
36244;DHT22;22284;49.956;19.816;2022-11-11T10:15:38;11.37;79.99
36244;DHT22;22284;49.956;19.816;2022-11-11T10:22:19;11.55;79.25
36244;DHT22;22284;49.956;19.816;2022-11-11T10:25:23;11.60;78.92
36244;DHT22;22284;49.956;19.816;2022-11-11T10:28:31;11.72;78.87
36244;DHT22;22284;49.956;19.816;2022-11-11T10:31:33;11.84;78.85
36244;DHT22;22284;49.956;19.816;2022-11-11T10:34:36;11.90;78.82
36244;DHT22;22284;49.956;19.816;2022-11-11T10:37:41;11.96;78.70
36244;DHT22;22284;49.956;19.816;2022-11-11T10:40:49;12.01;78.71
36244;DHT22;22284;49.956;19.816;2022-11-11T10:43:51;12.05;78.32
36244;DHT22;22284;49.956;19.816;2022-11-11T10:47:09;12.09;77.83
36244;DHT22;22284;49.956;19.816;2022-11-11T10:50:25;12.13;77.67
36244;DHT22;22284;49.956;19.816;2022-11-11T10:57:13;12.21;77.59
36244;DHT22;22284;49.956;19.816;2022-11-11T11:00:14;12.25;77.33
36244;DHT22;22284;49.956;19.816;2022-11-11T11:03:45;12.28;77.22
36244;DHT22;22284;49.956;19.816;2022-11-11T11:06:48;12.31;77.10
36244;DHT22;22284;49.956;19.816;2022-11-11T11:09:57;12.38;76.90
36244;DHT22;22284;49.956;19.816;2022-11-11T11:13:20;12.48;76.72
36244;DHT22;22284;49.956;19.816;2022-11-11T11:16:33;12.56;76.63
36244;DHT22;22284;49.956;19.816;2022-11-11T11:19:35;12.71;76.21
36244;DHT22;22284;49.956;19.816;2022-11-11T11:22:56;12.83;75.72
36244;DHT22;22284;49.956;19.816;2022-11-11T11:25:59;12.91;75.78
36244;DHT22;22284;49.956;19.816;2022-11-11T11:29:02;13.00;75.56
36244;DHT22;22284;49.956;19.816;2022-11-11T11:32:16;13.05;75.34
36244;DHT22;22284;49.956;19.816;2022-11-11T11:35:39;13.10;75.22
36244;DHT22;22284;49.956;19.816;2022-11-11T11:38:50;13.11;75.23
36244;DHT22;22284;49.956;19.816;2022-11-11T11:41:50;13.10;75.00
36244;DHT22;22284;49.956;19.816;2022-11-11T11:44:51;13.11;74.93
36244;DHT22;22284;49.956;19.816;2022-11-11T11:58:23;13.23;74.34
36244;DHT22;22284;49.956;19.816;2022-11-11T12:05:01;13.32;72.93
36244;DHT22;22284;49.956;19.816;2022-11-11T12:11:59;13.42;72.03
36244;DHT22;22284;49.956;19.816;2022-11-11T12:15:26;13.42;72.65
36244;DHT22;22284;49.956;19.816;2022-11-11T12:19:14;13.49;72.38
36244;DHT22;22284;49.956;19.816;2022-11-11T12:22:34;13.49;72.39
36244;DHT22;22284;49.956;19.816;2022-11-11T12:28:52;13.54;72.04
36244;DHT22;22284;49.956;19.816;2022-11-11T12:35:31;13.53;71.88
36244;DHT22;22284;49.956;19.816;2022-11-11T12:38:52;13.53;71.25
36244;DHT22;22284;49.956;19.816;2022-11-11T12:42:30;13.51;70.23
36244;DHT22;22284;49.956;19.816;2022-11-11T12:46:23;13.53;70.65
36244;DHT22;22284;49.956;19.816;2022-11-11T12:53:37;13.47;71.08
36244;DHT22;22284;49.956;19.816;2022-11-11T12:56:44;13.47;71.11
36244;DHT22;22284;49.956;19.816;2022-11-11T13:00:16;13.47;71.21
36244;DHT22;22284;49.956;19.816;2022-11-11T13:10:37;13.38;71.23
36244;DHT22;22284;49.956;19.816;2022-11-11T13:14:03;13.35;71.07
36244;DHT22;22284;49.956;19.816;2022-11-11T13:17:08;13.33;70.78
36244;DHT22;22284;49.956;19.816;2022-11-11T13:20:55;13.32;71.02
36244;DHT22;22284;49.956;19.816;2022-11-11T13:23:57;13.31;71.07
36244;DHT22;22284;49.956;19.816;2022-11-11T13:27:11;13.26;71.27
36244;DHT22;22284;49.956;19.816;2022-11-11T13:33:47;13.22;71.36
36244;DHT22;22284;49.956;19.816;2022-11-11T13:36:52;13.19;71.58
36244;DHT22;22284;49.956;19.816;2022-11-11T13:40:03;13.19;71.92
36244;DHT22;22284;49.956;19.816;2022-11-11T13:43:15;13.17;71.86
36244;DHT22;22284;49.956;19.816;2022-11-11T13:46:42;13.15;72.09
36244;DHT22;22284;49.956;19.816;2022-11-11T13:49:57;13.12;72.07
36244;DHT22;22284;49.956;19.816;2022-11-11T13:53:05;13.11;72.11
36244;DHT22;22284;49.956;19.816;2022-11-11T13:56:08;13.08;72.29
36244;DHT22;22284;49.956;19.816;2022-11-11T13:59:28;13.04;72.35
36244;DHT22;22284;49.956;19.816;2022-11-11T14:02:35;13.03;72.34
36244;DHT22;22284;49.956;19.816;2022-11-11T14:05:36;13.00;72.39
36244;DHT22;22284;49.956;19.816;2022-11-11T14:08:50;12.95;72.52
36244;DHT22;22284;49.956;19.816;2022-11-11T14:18:50;12.86;72.93
36244;DHT22;22284;49.956;19.816;2022-11-11T14:21:56;12.83;73.30
36244;DHT22;22284;49.956;19.816;2022-11-11T14:25:24;12.74;73.51
36244;DHT22;22284;49.956;19.816;2022-11-11T14:28:29;12.66;73.67
36244;DHT22;22284;49.956;19.816;2022-11-11T14:31:48;12.57;73.84
36244;DHT22;22284;49.956;19.816;2022-11-11T14:35:14;12.50;74.09
36244;DHT22;22284;49.956;19.816;2022-11-11T14:41:52;12.35;74.36
36244;DHT22;22284;49.956;19.816;2022-11-11T14:44:50;12.27;74.41
36244;DHT22;22284;49.956;19.816;2022-11-11T14:47:51;12.22;74.47
36244;DHT22;22284;49.956;19.816;2022-11-11T14:50:52;12.21;74.41
36244;DHT22;22284;49.956;19.816;2022-11-11T14:53:53;12.13;74.44
36244;DHT22;22284;49.956;19.816;2022-11-11T14:57:03;12.11;74.55
36244;DHT22;22284;49.956;19.816;2022-11-11T15:03:52;11.98;74.90
36244;DHT22;22284;49.956;19.816;2022-11-11T15:06:59;11.90;75.10
36244;DHT22;22284;49.956;19.816;2022-11-11T15:16:56;11.66;75.55
36244;DHT22;22284;49.956;19.816;2022-11-11T15:23:56;11.52;75.92
36244;DHT22;22284;49.956;19.816;2022-11-11T15:27:17;11.46;76.04
36244;DHT22;22284;49.956;19.816;2022-11-11T15:30:19;11.38;76.22
36244;DHT22;22284;49.956;19.816;2022-11-11T15:36:53;11.26;76.56
36244;DHT22;22284;49.956;19.816;2022-11-11T15:39:56;11.19;76.78
36244;DHT22;22284;49.956;19.816;2022-11-11T15:42:58;11.14;76.96
36244;DHT22;22284;49.956;19.816;2022-11-11T15:46:03;11.08;77.10
36244;DHT22;22284;49.956;19.816;2022-11-11T15:52:34;10.97;77.33
36244;DHT22;22284;49.956;19.816;2022-11-11T15:55:35;10.89;77.40
36244;DHT22;22284;49.956;19.816;2022-11-11T15:58:38;10.86;77.41
36244;DHT22;22284;49.956;19.816;2022-11-11T16:01:39;10.79;77.46
36244;DHT22;22284;49.956;19.816;2022-11-11T16:04:51;10.75;77.63
36244;DHT22;22284;49.956;19.816;2022-11-11T16:07:57;10.72;77.86
36244;DHT22;22284;49.956;19.816;2022-11-11T16:11:00;10.69;78.06
36244;DHT22;22284;49.956;19.816;2022-11-11T16:14:03;10.68;78.18
36244;DHT22;22284;49.956;19.816;2022-11-11T16:17:04;10.68;78.25
36244;DHT22;22284;49.956;19.816;2022-11-11T16:20:15;10.65;78.14
36244;DHT22;22284;49.956;19.816;2022-11-11T16:23:19;10.63;78.23
36244;DHT22;22284;49.956;19.816;2022-11-11T16:26:21;10.58;78.26
36244;DHT22;22284;49.956;19.816;2022-11-11T16:29:22;10.56;78.32
36244;DHT22;22284;49.956;19.816;2022-11-11T16:35:39;10.49;78.28
36244;DHT22;22284;49.956;19.816;2022-11-11T16:38:40;10.45;78.31
36244;DHT22;22284;49.956;19.816;2022-11-11T16:41:51;10.41;78.27
36244;DHT22;22284;49.956;19.816;2022-11-11T16:45:04;10.39;78.27
36244;DHT22;22284;49.956;19.816;2022-11-11T16:48:03;10.32;78.39
36244;DHT22;22284;49.956;19.816;2022-11-11T16:51:23;10.31;78.37
36244;DHT22;22284;49.956;19.816;2022-11-11T16:54:30;10.24;78.36
36244;DHT22;22284;49.956;19.816;2022-11-11T16:57:32;10.18;78.37
36244;DHT22;22284;49.956;19.816;2022-11-11T17:00:34;10.11;78.40
36244;DHT22;22284;49.956;19.816;2022-11-11T17:03:39;10.06;78.34
36244;DHT22;22284;49.956;19.816;2022-11-11T17:10:19;9.92;78.36
36244;DHT22;22284;49.956;19.816;2022-11-11T17:13:20;9.81;78.53
36244;DHT22;22284;49.956;19.816;2022-11-11T17:16:21;9.70;78.57
36244;DHT22;22284;49.956;19.816;2022-11-11T17:19:23;9.62;78.62
36244;DHT22;22284;49.956;19.816;2022-11-11T17:22:25;9.51;78.69
36244;DHT22;22284;49.956;19.816;2022-11-11T17:25:25;9.42;78.79
36244;DHT22;22284;49.956;19.816;2022-11-11T17:28:35;9.35;78.85
36244;DHT22;22284;49.956;19.816;2022-11-11T17:31:36;9.31;78.88
36244;DHT22;22284;49.956;19.816;2022-11-11T17:34:37;9.28;78.94
36244;DHT22;22284;49.956;19.816;2022-11-11T17:37:38;9.24;79.02
36244;DHT22;22284;49.956;19.816;2022-11-11T17:40:45;9.21;79.00
36244;DHT22;22284;49.956;19.816;2022-11-11T17:43:46;9.17;79.05
36244;DHT22;22284;49.956;19.816;2022-11-11T17:46:47;9.10;79.09
36244;DHT22;22284;49.956;19.816;2022-11-11T17:49:48;9.04;79.16
36244;DHT22;22284;49.956;19.816;2022-11-11T17:52:55;8.98;79.28
36244;DHT22;22284;49.956;19.816;2022-11-11T17:55:59;8.93;79.40
36244;DHT22;22284;49.956;19.816;2022-11-11T17:59:01;8.86;79.43
36244;DHT22;22284;49.956;19.816;2022-11-11T18:02:02;8.83;79.47
36244;DHT22;22284;49.956;19.816;2022-11-11T18:05:04;8.79;79.48
36244;DHT22;22284;49.956;19.816;2022-11-11T18:08:05;8.75;79.51
36244;DHT22;22284;49.956;19.816;2022-11-11T18:11:07;8.72;79.55
36244;DHT22;22284;49.956;19.816;2022-11-11T18:14:09;8.68;79.54
36244;DHT22;22284;49.956;19.816;2022-11-11T18:17:11;8.66;79.64
36244;DHT22;22284;49.956;19.816;2022-11-11T18:20:12;8.64;79.66
36244;DHT22;22284;49.956;19.816;2022-11-11T18:23:14;8.59;79.70
36244;DHT22;22284;49.956;19.816;2022-11-11T18:26:15;8.58;79.73
36244;DHT22;22284;49.956;19.816;2022-11-11T18:29:16;8.54;79.72
36244;DHT22;22284;49.956;19.816;2022-11-11T18:32:17;8.49;79.72
36244;DHT22;22284;49.956;19.816;2022-11-11T18:35:18;8.45;79.70
36244;DHT22;22284;49.956;19.816;2022-11-11T18:38:19;8.45;79.72
36244;DHT22;22284;49.956;19.816;2022-11-11T18:41:20;8.40;79.78
36244;DHT22;22284;49.956;19.816;2022-11-11T18:44:22;8.37;79.80
36244;DHT22;22284;49.956;19.816;2022-11-11T18:47:23;8.34;79.88
36244;DHT22;22284;49.956;19.816;2022-11-11T18:50:24;8.33;79.88
36244;DHT22;22284;49.956;19.816;2022-11-11T18:53:31;8.31;79.91
36244;DHT22;22284;49.956;19.816;2022-11-11T18:56:35;8.27;79.95
36244;DHT22;22284;49.956;19.816;2022-11-11T18:59:37;8.24;79.98
36244;DHT22;22284;49.956;19.816;2022-11-11T19:02:38;8.24;80.04
36244;DHT22;22284;49.956;19.816;2022-11-11T19:05:39;8.16;80.11
36244;DHT22;22284;49.956;19.816;2022-11-11T19:08:41;8.16;80.11
36244;DHT22;22284;49.956;19.816;2022-11-11T19:11:44;8.14;80.11
36244;DHT22;22284;49.956;19.816;2022-11-11T19:14:45;8.13;80.23
36244;DHT22;22284;49.956;19.816;2022-11-11T19:17:46;8.13;80.32
36244;DHT22;22284;49.956;19.816;2022-11-11T19:20:48;8.14;80.36
36244;DHT22;22284;49.956;19.816;2022-11-11T19:23:52;8.13;80.42
36244;DHT22;22284;49.956;19.816;2022-11-11T19:26:53;8.16;80.55
36244;DHT22;22284;49.956;19.816;2022-11-11T19:29:54;8.16;80.69
36244;DHT22;22284;49.956;19.816;2022-11-11T19:32:55;8.19;80.85
36244;DHT22;22284;49.956;19.816;2022-11-11T19:35:58;8.24;81.07
36244;DHT22;22284;49.956;19.816;2022-11-11T19:39:00;8.31;81.34
36244;DHT22;22284;49.956;19.816;2022-11-11T19:42:01;8.34;81.53
36244;DHT22;22284;49.956;19.816;2022-11-11T19:45:03;8.38;81.73
36244;DHT22;22284;49.956;19.816;2022-11-11T19:48:05;8.45;81.85
36244;DHT22;22284;49.956;19.816;2022-11-11T19:51:10;8.47;81.95
36244;DHT22;22284;49.956;19.816;2022-11-11T19:54:12;8.51;82.06
36244;DHT22;22284;49.956;19.816;2022-11-11T19:57:13;8.54;82.10
36244;DHT22;22284;49.956;19.816;2022-11-11T20:00:15;8.57;82.22
36244;DHT22;22284;49.956;19.816;2022-11-11T20:03:16;8.58;82.17
36244;DHT22;22284;49.956;19.816;2022-11-11T20:06:32;8.61;82.15
36244;DHT22;22284;49.956;19.816;2022-11-11T20:09:34;8.62;82.07
36244;DHT22;22284;49.956;19.816;2022-11-11T20:12:35;8.61;81.97
36244;DHT22;22284;49.956;19.816;2022-11-11T20:15:36;8.59;81.89
36244;DHT22;22284;49.956;19.816;2022-11-11T20:18:37;8.61;81.66
36244;DHT22;22284;49.956;19.816;2022-11-11T20:21:38;8.55;81.43
36244;DHT22;22284;49.956;19.816;2022-11-11T20:24:41;8.52;81.30
36244;DHT22;22284;49.956;19.816;2022-11-11T20:27:42;8.43;80.97
36244;DHT22;22284;49.956;19.816;2022-11-11T20:30:43;8.33;80.72
36244;DHT22;22284;49.956;19.816;2022-11-11T20:33:48;8.24;80.57
36244;DHT22;22284;49.956;19.816;2022-11-11T20:36:50;8.14;80.47
36244;DHT22;22284;49.956;19.816;2022-11-11T20:39:52;8.06;80.36
36244;DHT22;22284;49.956;19.816;2022-11-11T20:42:53;7.99;80.33
36244;DHT22;22284;49.956;19.816;2022-11-11T20:46:02;7.98;80.31
36244;DHT22;22284;49.956;19.816;2022-11-11T20:49:03;7.96;80.23
36244;DHT22;22284;49.956;19.816;2022-11-11T20:52:04;7.93;80.32
36244;DHT22;22284;49.956;19.816;2022-11-11T20:55:06;7.91;80.42